createdAt,value
2023-05-16T00:01:46.396Z,99.90
2023-05-16T00:04:13.233Z,99.90
2023-05-16T00:06:40.100Z,99.90
2023-05-16T00:09:06.997Z,99.90
2023-05-16T00:11:33.739Z,99.90
2023-05-16T00:14:01.372Z,99.90
2023-05-16T00:16:29.838Z,99.90
2023-05-16T00:18:57.779Z,99.90
2023-05-16T00:21:24.997Z,99.90
2023-05-16T00:23:52.764Z,99.90
2023-05-16T00:26:19.593Z,99.90
2023-05-16T00:28:46.284Z,99.90
2023-05-16T00:31:12.914Z,99.90
2023-05-16T00:33:39.523Z,99.90
2023-05-16T00:36:06.386Z,99.90
2023-05-16T00:38:33.095Z,99.90
2023-05-16T00:40:59.731Z,99.90
2023-05-16T00:43:26.397Z,99.90
2023-05-16T00:45:53.075Z,99.90
2023-05-16T00:48:19.782Z,99.90
2023-05-16T00:50:47.278Z,99.90
2023-05-16T00:53:13.959Z,99.90
2023-05-16T00:55:40.862Z,99.90
2023-05-16T00:58:07.670Z,99.90
2023-05-16T01:00:34.291Z,99.90
2023-05-16T01:03:01.320Z,99.90
2023-05-16T01:05:29.256Z,99.90
2023-05-16T01:07:56.272Z,99.90
2023-05-16T01:10:23.334Z,99.90
2023-05-16T01:12:52.715Z,99.90
2023-05-16T01:15:26.043Z,99.90
2023-05-16T01:18:14.497Z,99.90
2023-05-16T01:20:56.844Z,99.90
2023-05-16T01:23:54.412Z,99.90
2023-05-16T01:26:26.592Z,99.90
2023-05-16T01:28:54.520Z,99.90
2023-05-16T01:31:23.180Z,99.90
2023-05-16T01:33:50.545Z,99.90
2023-05-16T01:36:39.572Z,99.90
2023-05-16T01:39:36.195Z,99.90
2023-05-16T01:42:14.022Z,99.90
2023-05-16T01:44:45.491Z,99.90
2023-05-16T01:47:14.312Z,99.90
2023-05-16T01:49:51.144Z,99.90
2023-05-16T01:52:31.944Z,99.90
2023-05-16T01:55:00.246Z,99.90
2023-05-16T01:57:29.047Z,99.90
2023-05-16T01:59:57.668Z,99.90
2023-05-16T02:02:24.375Z,99.90
2023-05-16T02:04:51.297Z,99.90
2023-05-16T02:07:18.354Z,99.90
2023-05-16T02:09:44.966Z,99.90
2023-05-16T02:12:11.611Z,99.90
2023-05-16T02:14:38.234Z,99.90
2023-05-16T02:17:05.504Z,99.90
2023-05-16T02:19:32.219Z,99.90
2023-05-16T02:21:58.812Z,99.90
2023-05-16T02:24:25.467Z,99.90
2023-05-16T02:26:52.042Z,99.90
2023-05-16T02:29:18.872Z,99.90
2023-05-16T02:31:45.894Z,99.90
2023-05-16T02:34:12.545Z,99.90
2023-05-16T02:36:39.134Z,99.90
2023-05-16T02:39:05.800Z,99.90
2023-05-16T02:41:33.144Z,99.90
2023-05-16T02:43:59.785Z,99.90
2023-05-16T02:46:31.400Z,99.90
2023-05-16T02:48:58.067Z,99.90
2023-05-16T02:51:26.639Z,99.90
2023-05-16T02:53:54.059Z,99.90
2023-05-16T02:56:21.839Z,99.90
2023-05-16T02:58:49.917Z,99.90
2023-05-16T03:01:17.411Z,99.90
2023-05-16T03:03:44.215Z,99.90
2023-05-16T03:06:11.240Z,99.90
2023-05-16T03:08:37.912Z,99.90
2023-05-16T03:11:04.617Z,99.90
2023-05-16T03:13:31.285Z,99.90
2023-05-16T03:15:58.037Z,99.90
2023-05-16T03:18:24.687Z,99.90
2023-05-16T03:20:52.996Z,99.90
2023-05-16T03:23:20.932Z,99.90
2023-05-16T03:25:47.918Z,99.90
2023-05-16T03:28:15.729Z,99.90
2023-05-16T03:30:42.432Z,99.90
2023-05-16T03:33:09.462Z,99.90
2023-05-16T03:35:36.872Z,99.90
2023-05-16T03:38:03.966Z,99.90
2023-05-16T03:40:30.850Z,99.90
2023-05-16T03:42:57.597Z,99.90
2023-05-16T03:45:24.394Z,99.90
2023-05-16T03:47:51.378Z,99.90
2023-05-16T03:50:18.323Z,99.90
2023-05-16T03:52:45.050Z,99.90
2023-05-16T03:55:14.158Z,99.90
2023-05-16T03:57:44.710Z,99.90
2023-05-16T04:00:12.586Z,99.90
2023-05-16T04:02:43.907Z,99.90
2023-05-16T04:05:11.784Z,99.90
2023-05-16T04:07:38.473Z,99.90
2023-05-16T04:10:06.457Z,99.90
2023-05-16T04:12:33.366Z,99.90
2023-05-16T04:15:00.033Z,99.90
2023-05-16T04:17:26.659Z,99.90
2023-05-16T04:19:53.309Z,99.90
2023-05-16T04:22:22.791Z,99.90
2023-05-16T04:24:49.838Z,99.90
2023-05-16T04:27:16.817Z,99.90
2023-05-16T04:29:43.429Z,99.90
2023-05-16T04:32:12.345Z,99.90
2023-05-16T04:34:40.319Z,99.90
2023-05-16T04:37:08.161Z,99.90
2023-05-16T04:39:36.134Z,99.90
2023-05-16T04:42:04.296Z,99.90
2023-05-16T04:44:31.598Z,99.90
2023-05-16T04:46:58.281Z,99.90
2023-05-16T04:49:25.009Z,99.90
2023-05-16T04:51:51.616Z,99.90
2023-05-16T04:54:18.277Z,99.90
2023-05-16T04:56:44.998Z,99.90
2023-05-16T04:59:11.714Z,99.90
2023-05-16T05:01:39.477Z,99.90
2023-05-16T05:04:06.410Z,99.90
2023-05-16T05:06:33.064Z,99.90
2023-05-16T05:08:59.744Z,99.90
2023-05-16T05:11:27.262Z,99.90
2023-05-16T05:13:53.942Z,99.90
2023-05-16T05:16:20.663Z,99.90
2023-05-16T05:18:47.385Z,99.90
2023-05-16T05:21:14.196Z,99.90
2023-05-16T05:23:41.121Z,99.90
2023-05-16T05:26:07.836Z,99.90
2023-05-16T05:28:34.430Z,99.90
2023-05-16T05:31:01.038Z,99.90
2023-05-16T05:33:31.023Z,99.90
2023-05-16T05:35:57.773Z,99.90
2023-05-16T05:38:24.653Z,99.90
2023-05-16T05:40:51.291Z,99.90
2023-05-16T05:43:17.925Z,99.90
2023-05-16T05:45:44.986Z,99.90
2023-05-16T05:48:12.820Z,99.90
2023-05-16T05:50:39.710Z,99.90
2023-05-16T05:53:06.407Z,99.90
2023-05-16T05:55:33.063Z,99.90
2023-05-16T05:57:59.708Z,99.90
2023-05-16T06:00:26.423Z,99.90
2023-05-16T06:02:53.428Z,99.90
2023-05-16T06:05:20.426Z,99.90
2023-05-16T06:07:47.101Z,99.90
2023-05-16T06:10:13.696Z,99.90
2023-05-16T06:12:40.407Z,99.90
2023-05-16T06:15:07.823Z,99.90
2023-05-16T06:17:34.562Z,99.90
2023-05-16T06:20:01.742Z,99.90
2023-05-16T06:22:28.375Z,99.90
2023-05-16T06:24:55.001Z,99.90
2023-05-16T06:27:21.623Z,99.90
2023-05-16T06:29:48.212Z,99.90
2023-05-16T06:32:14.853Z,99.90
2023-05-16T06:34:41.544Z,99.90
2023-05-16T06:37:08.171Z,99.90
2023-05-16T06:39:34.786Z,99.90
2023-05-16T06:42:01.517Z,99.90
2023-05-16T06:44:28.309Z,99.90
2023-05-16T06:46:55.052Z,99.90
2023-05-16T06:49:21.846Z,99.90
2023-05-16T06:51:48.527Z,99.90
2023-05-16T06:54:15.182Z,99.90
2023-05-16T06:56:41.939Z,99.90
2023-05-16T06:59:08.583Z,99.90
2023-05-16T07:01:35.341Z,99.90
2023-05-16T07:04:02.148Z,99.90
2023-05-16T07:06:28.918Z,99.90
2023-05-16T07:08:55.668Z,99.90
2023-05-16T07:11:22.341Z,99.90
2023-05-16T07:13:48.988Z,99.90
2023-05-16T07:16:15.732Z,99.90
2023-05-16T07:18:42.410Z,99.90
2023-05-16T07:21:09.087Z,99.90
2023-05-16T07:23:35.745Z,99.90
2023-05-16T07:26:02.805Z,99.90
2023-05-16T07:28:29.436Z,99.90
2023-05-16T07:30:58.560Z,99.90
2023-05-16T07:33:25.635Z,99.90
2023-05-16T07:35:55.944Z,99.90
2023-05-16T07:38:27.849Z,99.90
2023-05-16T07:40:57.153Z,99.90
2023-05-16T07:43:23.858Z,99.90
2023-05-16T07:45:50.656Z,99.90
2023-05-16T07:48:17.325Z,99.90
2023-05-16T07:50:44.398Z,99.40
2023-05-16T07:53:11.338Z,98.80
2023-05-16T07:55:38.021Z,96.90
2023-05-16T07:58:04.784Z,95.50
2023-05-16T08:00:31.495Z,95.70
2023-05-16T08:02:58.318Z,95.70
2023-05-16T08:05:25.280Z,95.60
2023-05-16T08:07:52.451Z,94.80
2023-05-16T08:10:19.155Z,93.70
2023-05-16T08:12:46.403Z,93.40
2023-05-16T08:15:13.051Z,92.70
2023-05-16T08:17:39.912Z,92.70
2023-05-16T08:20:07.857Z,91.30
2023-05-16T08:22:34.659Z,91.30
2023-05-16T08:25:01.331Z,91.80
2023-05-16T08:27:28.749Z,90.60
2023-05-16T08:29:55.739Z,90.20
2023-05-16T08:32:23.148Z,89.90
2023-05-16T08:34:49.796Z,88.70
2023-05-16T12:17:04.590Z,60.50
2023-05-16T12:19:31.828Z,61.30
2023-05-16T12:21:58.911Z,59.90
2023-05-16T12:24:31.765Z,60.20
2023-05-16T12:26:58.927Z,60.80
2023-05-16T12:29:26.493Z,60.90
2023-05-16T12:31:53.791Z,60.60
2023-05-16T12:34:21.761Z,60.90
2023-05-16T12:36:53.521Z,60.20
2023-05-16T12:39:21.039Z,60.40
2023-05-16T12:41:47.803Z,58.10
2023-05-16T12:44:19.300Z,58.10
2023-05-16T12:46:50.284Z,57.90
2023-05-16T12:49:24.028Z,58.20
2023-05-16T12:51:57.096Z,57.80
2023-05-16T12:54:23.969Z,59.40
2023-05-16T12:56:50.957Z,59.20
2023-05-16T12:59:19.340Z,57.40
2023-05-16T13:01:46.340Z,58.00
2023-05-16T13:04:20.485Z,58.20
2023-05-16T13:06:57.549Z,58.10
2023-05-16T13:09:28.873Z,58.20
2023-05-16T13:11:58.055Z,60.50
2023-05-16T13:14:25.041Z,60.10
2023-05-16T13:16:51.823Z,59.70
2023-05-16T13:19:18.753Z,59.90
2023-05-16T13:21:45.599Z,60.20
2023-05-16T13:24:12.418Z,59.90
2023-05-16T13:26:39.480Z,59.80
2023-05-16T13:29:06.306Z,60.30
2023-05-16T13:31:33.256Z,60.50
2023-05-16T13:34:00.085Z,61.10
2023-05-16T13:36:27.000Z,61.10
2023-05-16T13:38:54.466Z,61.90
2023-05-16T13:41:21.972Z,61.90
2023-05-16T13:43:48.734Z,61.70
2023-05-16T13:46:15.654Z,61.20
2023-05-16T13:48:42.597Z,61.60
2023-05-16T13:51:11.292Z,62.00
2023-05-16T13:53:39.170Z,63.40
2023-05-16T13:56:06.377Z,63.20
2023-05-16T13:58:33.114Z,63.10
2023-05-16T14:00:59.886Z,63.80
2023-05-16T14:03:26.785Z,65.40
2023-05-16T14:05:54.224Z,64.60
2023-05-16T14:08:21.010Z,65.00
2023-05-16T14:10:47.766Z,64.80
2023-05-16T14:13:14.671Z,64.40
2023-05-16T14:15:41.421Z,63.80
2023-05-16T14:18:08.403Z,63.60
2023-05-16T14:20:35.710Z,64.20
2023-05-16T14:23:02.512Z,65.10
2023-05-16T14:25:29.837Z,64.60
2023-05-16T14:27:56.774Z,64.60
2023-05-16T14:30:23.737Z,65.40
2023-05-16T14:32:50.767Z,65.80
2023-05-16T14:35:17.684Z,66.40
2023-05-16T14:37:44.476Z,66.90
2023-05-16T14:40:12.368Z,65.00
2023-05-16T14:42:39.985Z,63.60
2023-05-16T14:45:07.531Z,62.50
2023-05-16T14:47:34.398Z,63.40
2023-05-16T14:50:01.336Z,63.10
2023-05-16T14:52:28.458Z,64.70
2023-05-16T14:54:55.212Z,64.80
2023-05-16T14:57:22.151Z,63.50
2023-05-16T14:59:49.597Z,64.90
2023-05-16T15:02:16.596Z,65.30
2023-05-16T15:04:43.431Z,65.10
2023-05-16T15:07:10.280Z,66.00
2023-05-16T15:09:37.183Z,66.30
2023-05-16T15:12:05.089Z,66.60
2023-05-16T15:14:31.825Z,66.40
2023-05-16T15:16:58.591Z,66.80
2023-05-16T15:19:25.655Z,67.90
2023-05-16T15:21:52.899Z,67.90
2023-05-16T15:24:19.881Z,68.40
2023-05-16T15:26:46.710Z,68.50
2023-05-16T15:29:13.684Z,68.60
2023-05-16T15:31:40.487Z,68.50
2023-05-16T15:34:08.539Z,67.40
2023-05-16T15:36:35.431Z,68.10
2023-05-16T15:39:02.235Z,68.30
2023-05-16T15:41:50.570Z,68.70
2023-05-16T15:44:15.907Z,69.00
2023-05-16T15:46:42.755Z,69.50
2023-05-16T15:49:09.654Z,69.40
2023-05-16T15:51:36.400Z,69.50
2023-05-16T15:54:03.273Z,70.00
2023-05-16T15:56:30.104Z,69.50
2023-05-16T15:58:57.156Z,68.90
2023-05-16T16:01:24.153Z,68.50
2023-05-16T16:03:51.521Z,67.90
2023-05-16T16:06:18.442Z,67.50
2023-05-16T16:08:45.397Z,68.30
2023-05-16T16:11:12.258Z,68.70
2023-05-16T16:13:39.064Z,69.60
2023-05-16T16:16:06.673Z,69.90
2023-05-16T16:18:34.684Z,69.80
2023-05-16T16:21:01.791Z,70.00
2023-05-16T16:23:28.686Z,70.90
2023-05-16T16:25:55.526Z,70.60
2023-05-16T16:28:22.735Z,71.10
2023-05-16T16:30:50.400Z,70.50
2023-05-16T16:33:17.453Z,71.00
2023-05-16T16:35:44.266Z,71.00
2023-05-16T16:38:11.754Z,71.00
2023-05-16T16:40:38.684Z,71.10
2023-05-16T16:43:06.980Z,71.60
2023-05-16T16:45:33.836Z,72.00
2023-05-16T16:48:00.745Z,72.90
2023-05-16T16:50:27.604Z,72.40
2023-05-16T16:52:54.752Z,72.40
2023-05-16T16:55:21.935Z,71.50
2023-05-16T16:57:48.749Z,72.00
2023-05-16T17:00:16.419Z,72.20
2023-05-16T17:02:43.476Z,73.10
2023-05-16T17:05:10.820Z,73.90
2023-05-16T17:07:37.740Z,74.30
2023-05-16T17:10:05.745Z,74.30
2023-05-16T17:12:34.533Z,74.10
2023-05-16T17:15:02.289Z,74.60
2023-05-16T17:17:29.285Z,74.70
2023-05-16T17:19:56.252Z,75.10
2023-05-16T17:22:23.051Z,75.80
2023-05-16T17:24:49.897Z,75.60
2023-05-16T17:27:16.972Z,76.30
2023-05-16T17:29:43.806Z,76.70
2023-05-16T17:32:10.726Z,76.90
2023-05-16T17:34:37.467Z,76.90
2023-05-16T17:37:06.358Z,77.60
2023-05-16T17:39:34.014Z,77.70
2023-05-16T17:42:00.872Z,77.90
2023-05-16T17:44:27.672Z,78.00
2023-05-16T17:46:54.541Z,78.10
2023-05-16T17:49:21.607Z,78.00
2023-05-16T17:51:56.480Z,77.90
2023-05-16T17:54:24.015Z,77.50
2023-05-16T17:56:51.162Z,76.60
2023-05-16T17:59:21.082Z,76.90
2023-05-16T18:01:48.399Z,77.20
2023-05-16T18:04:15.541Z,76.80
2023-05-16T18:06:42.469Z,77.10
2023-05-16T18:09:14.933Z,77.50
2023-05-16T18:11:42.509Z,77.50
2023-05-16T18:14:09.425Z,78.60
2023-05-16T18:16:36.596Z,78.30
2023-05-16T18:19:04.811Z,78.90
2023-05-16T18:21:32.180Z,79.90
2023-05-16T18:23:59.542Z,80.30
2023-05-16T18:26:27.961Z,81.50
2023-05-16T18:28:57.894Z,81.60
2023-05-16T18:31:24.852Z,81.90
2023-05-16T18:33:52.130Z,82.30
2023-05-16T18:36:18.926Z,83.40
2023-05-16T18:38:45.844Z,83.80
2023-05-16T18:41:12.727Z,84.40
2023-05-16T18:43:39.585Z,84.80
2023-05-16T18:46:06.459Z,84.80
2023-05-16T18:48:34.677Z,85.30
2023-05-16T18:51:03.040Z,85.60
2023-05-16T18:53:29.907Z,85.90
2023-05-16T18:55:56.760Z,85.90
2023-05-16T18:58:23.553Z,86.30
2023-05-16T19:00:50.575Z,86.90
2023-05-16T19:03:17.565Z,87.60
2023-05-16T19:05:45.090Z,87.60
2023-05-16T19:08:12.051Z,87.70
2023-05-16T19:10:41.444Z,88.20
2023-05-16T19:13:08.793Z,88.80
2023-05-16T19:15:37.877Z,89.30
2023-05-16T19:18:06.172Z,90.10
2023-05-16T19:20:34.851Z,90.30
2023-05-16T19:23:03.108Z,90.60
2023-05-16T19:25:30.724Z,90.70
2023-05-16T19:27:57.589Z,91.10
2023-05-16T19:30:25.009Z,91.30
2023-05-16T19:32:51.913Z,91.60
2023-05-16T19:35:19.460Z,92.00
2023-05-16T19:37:46.407Z,92.40
2023-05-16T19:40:15.478Z,93.00
2023-05-16T19:42:43.935Z,94.10
2023-05-16T19:45:11.198Z,94.60
2023-05-16T19:47:38.232Z,95.40
2023-05-16T19:50:06.753Z,96.40
2023-05-16T19:52:33.684Z,97.10
2023-05-16T19:55:00.720Z,97.80
2023-05-16T19:57:27.778Z,98.70
2023-05-16T19:59:54.666Z,99.50
2023-05-16T20:02:24.303Z,99.90
2023-05-16T20:04:51.736Z,99.90
2023-05-16T20:07:18.851Z,99.90
2023-05-16T20:09:45.659Z,99.90
2023-05-16T20:12:12.715Z,99.90
2023-05-16T20:14:39.583Z,99.90
2023-05-16T20:17:06.523Z,99.90
2023-05-16T20:19:33.585Z,99.90
2023-05-16T20:22:01.148Z,99.90
2023-05-16T20:24:27.995Z,99.90
2023-05-16T20:26:54.759Z,99.90
2023-05-16T20:29:21.516Z,99.90
2023-05-16T20:31:48.331Z,99.90
2023-05-16T20:34:15.163Z,99.90
2023-05-16T20:36:41.990Z,99.90
2023-05-16T20:39:08.988Z,99.90
2023-05-16T20:41:35.818Z,99.90
2023-05-16T20:44:02.592Z,99.90
2023-05-16T20:46:29.406Z,99.90
2023-05-16T20:48:56.293Z,99.90
2023-05-16T20:51:23.207Z,99.90
2023-05-16T20:53:50.009Z,99.90
2023-05-16T20:56:16.821Z,99.90
2023-05-16T20:58:43.690Z,99.90
2023-05-16T21:01:10.590Z,99.90
2023-05-16T21:03:37.474Z,99.90
2023-05-16T21:06:04.693Z,99.90
2023-05-16T21:08:31.682Z,99.90
2023-05-16T21:10:58.619Z,99.90
2023-05-16T21:13:25.864Z,99.90
2023-05-16T21:15:52.655Z,99.90
2023-05-16T21:18:19.472Z,99.90
2023-05-16T21:20:46.396Z,99.90
2023-05-16T21:23:13.254Z,99.90
2023-05-16T21:25:40.980Z,99.90
2023-05-16T21:28:07.885Z,99.90
2023-05-16T21:30:34.621Z,99.90
2023-05-16T21:33:01.828Z,99.90
2023-05-16T21:35:28.857Z,99.90
2023-05-16T21:37:55.828Z,99.90
2023-05-16T21:40:24.978Z,99.90
2023-05-16T21:42:52.685Z,99.90
2023-05-16T21:45:19.731Z,99.90
2023-05-16T21:47:46.917Z,99.90
2023-05-16T21:50:14.117Z,99.90
2023-05-16T21:52:41.323Z,99.90
2023-05-16T21:55:08.739Z,99.90
2023-05-16T21:57:35.844Z,99.90
2023-05-16T22:00:09.141Z,99.90
2023-05-16T22:02:37.380Z,99.90
2023-05-16T22:05:05.342Z,99.90
2023-05-16T22:07:32.170Z,99.90
2023-05-16T22:09:59.475Z,99.90
2023-05-16T22:12:27.690Z,99.90
2023-05-16T22:14:54.917Z,99.90
2023-05-16T22:17:21.783Z,99.90
2023-05-16T22:19:48.729Z,99.90
2023-05-16T22:22:15.800Z,99.90
2023-05-16T22:24:42.562Z,99.90
2023-05-16T22:27:09.323Z,99.90
2023-05-16T22:29:38.851Z,99.90
2023-05-16T22:32:10.182Z,99.90
2023-05-16T22:34:40.409Z,99.90
2023-05-16T22:37:08.903Z,99.90
2023-05-16T22:39:36.168Z,99.90
2023-05-16T22:42:03.542Z,99.90
2023-05-16T22:44:30.423Z,99.90
2023-05-16T22:46:57.245Z,99.90
2023-05-16T22:49:24.055Z,99.90
2023-05-16T22:51:50.875Z,99.90
2023-05-16T22:54:17.775Z,99.90
2023-05-16T22:56:44.566Z,99.90
2023-05-16T22:59:11.364Z,99.90
2023-05-16T23:01:38.256Z,99.90
2023-05-16T23:04:05.353Z,99.90
2023-05-16T23:06:32.531Z,99.90
2023-05-16T23:09:03.942Z,99.90
2023-05-16T23:11:32.242Z,99.90
2023-05-16T23:13:59.089Z,99.90
2023-05-16T23:16:25.970Z,99.90
2023-05-16T23:18:52.852Z,99.90
2023-05-16T23:21:19.683Z,99.90
2023-05-16T23:23:46.680Z,99.90
2023-05-16T23:26:13.447Z,99.90
2023-05-16T23:28:40.237Z,99.90
2023-05-16T23:31:07.335Z,99.90
2023-05-16T23:33:34.100Z,99.90
2023-05-16T23:36:00.883Z,99.90
2023-05-16T23:38:27.724Z,99.90
2023-05-16T23:40:54.460Z,99.90
2023-05-16T23:43:21.297Z,99.90
2023-05-16T23:45:48.123Z,99.90
2023-05-16T23:48:14.912Z,99.90
2023-05-16T23:50:41.810Z,99.90
2023-05-16T23:53:08.633Z,99.90
2023-05-16T23:55:35.386Z,99.90
2023-05-16T23:58:02.228Z,99.90
